createdAt,value
2019-03-17T00:00:17.098Z,97240.95
2019-03-17T00:02:45.784Z,97232.76
2019-03-17T00:05:14.494Z,97232.48
2019-03-17T00:07:43.069Z,97232.51
2019-03-17T00:10:11.971Z,97235.77
2019-03-17T00:12:40.472Z,97234.95
2019-03-17T00:15:09.225Z,97238.41
2019-03-17T00:17:37.917Z,97235.23
2019-03-17T00:20:07.633Z,97238.03
2019-03-17T00:22:36.355Z,97242.88
2019-03-17T00:25:09.479Z,97241.49
2019-03-17T00:27:36.397Z,97244.00
2019-03-17T00:30:11.919Z,97242.23
2019-03-17T00:32:40.457Z,97239.69
2019-03-17T00:35:09.089Z,97238.81
2019-03-17T00:37:37.726Z,97240.08
2019-03-17T00:40:10.736Z,97245.50
2019-03-17T00:42:39.508Z,97256.95
2019-03-17T00:45:12.135Z,97255.63
2019-03-17T00:47:40.751Z,97251.67
2019-03-17T00:50:11.200Z,97252.73
2019-03-17T00:52:39.838Z,97248.79
2019-03-17T00:55:08.688Z,97246.60
2019-03-17T00:57:37.329Z,97243.30
2019-03-17T01:00:11.626Z,97241.84
2019-03-17T01:02:40.315Z,97244.00
2019-03-17T01:05:09.034Z,97250.23
2019-03-17T01:07:37.672Z,97241.69
2019-03-17T01:10:08.563Z,97242.63
2019-03-17T01:12:37.131Z,97246.05
2019-03-17T01:15:10.600Z,97251.16
2019-03-17T01:17:39.303Z,97252.83
2019-03-17T01:20:09.740Z,97255.25
2019-03-17T01:22:38.317Z,97255.59
2019-03-17T01:25:09.001Z,97255.59
2019-03-17T01:27:37.647Z,97249.20
2019-03-17T01:30:09.070Z,97246.81
2019-03-17T01:32:38.209Z,97246.02
2019-03-17T01:35:09.843Z,97244.31
2019-03-17T01:37:38.386Z,97248.41
2019-03-17T01:40:09.350Z,97268.30
2019-03-17T01:42:37.996Z,97268.00
2019-03-17T01:45:08.448Z,97271.70
2019-03-17T01:47:37.263Z,97267.45
2019-03-17T01:50:07.408Z,97262.81
2019-03-17T01:52:36.057Z,97256.24
2019-03-17T01:55:06.051Z,97250.83
2019-03-17T01:57:34.699Z,97247.27
2019-03-17T02:00:03.270Z,97246.72
2019-03-17T02:02:31.951Z,97257.18
2019-03-17T02:05:00.515Z,97250.23
2019-03-17T02:07:29.094Z,97254.94
2019-03-17T02:09:57.703Z,97258.02
2019-03-17T02:12:26.267Z,97257.44
2019-03-17T02:14:54.837Z,97266.87
2019-03-17T02:17:23.522Z,97268.85
2019-03-17T02:19:52.161Z,97267.47
2019-03-17T02:22:22.262Z,97269.15
2019-03-17T02:24:51.029Z,97271.11
2019-03-17T02:27:19.676Z,97263.90
2019-03-17T02:29:48.256Z,97268.16
2019-03-17T02:32:16.873Z,97272.12
2019-03-17T02:34:45.438Z,97276.34
2019-03-17T02:37:14.067Z,97275.27
2019-03-17T02:39:42.760Z,97273.67
2019-03-17T02:42:11.324Z,97277.05
2019-03-17T02:44:39.911Z,97280.78
2019-03-17T02:47:08.511Z,97286.94
2019-03-17T02:49:37.129Z,97293.50
2019-03-17T02:52:05.804Z,97292.88
2019-03-17T02:54:34.491Z,97297.45
2019-03-17T02:57:03.128Z,97293.13
2019-03-17T02:59:31.779Z,97291.69
2019-03-17T03:02:00.488Z,97293.04
2019-03-17T03:04:29.060Z,97304.83
2019-03-17T03:06:57.567Z,97311.53
2019-03-17T03:09:26.199Z,97317.63
2019-03-17T03:11:54.836Z,97320.09
2019-03-17T03:14:23.479Z,97315.59
2019-03-17T03:16:52.099Z,97316.11
2019-03-17T03:19:20.741Z,97319.48
2019-03-17T03:21:49.385Z,97320.09
2019-03-17T03:24:18.101Z,97319.05
2019-03-17T03:26:46.646Z,97325.10
2019-03-17T03:29:15.289Z,97327.31
2019-03-17T03:31:43.846Z,97322.80
2019-03-17T03:34:12.502Z,97314.97
2019-03-17T03:36:41.141Z,97321.69
2019-03-17T03:39:09.749Z,97333.55
2019-03-17T03:41:38.415Z,97328.13
2019-03-17T03:44:07.066Z,97324.61
2019-03-17T03:46:35.741Z,97326.14
2019-03-17T03:49:04.486Z,97322.73
2019-03-17T03:51:33.072Z,97327.75
2019-03-17T03:54:01.688Z,97325.28
2019-03-17T03:56:30.334Z,97327.86
2019-03-17T03:58:59.080Z,97333.33
2019-03-17T04:01:27.686Z,97338.63
2019-03-17T04:03:56.331Z,97346.63
2019-03-17T04:06:26.678Z,97354.38
2019-03-17T04:08:55.333Z,97353.08
2019-03-17T04:11:23.956Z,97360.22
2019-03-17T04:13:52.529Z,97361.84
2019-03-17T04:16:21.149Z,97362.70
2019-03-17T04:18:49.805Z,97362.56
2019-03-17T04:21:18.477Z,97366.98
2019-03-17T04:23:47.162Z,97368.71
2019-03-17T04:26:15.813Z,97364.31
2019-03-17T04:28:44.396Z,97370.72
2019-03-17T04:31:14.726Z,97364.62
2019-03-17T04:33:43.385Z,97369.91
2019-03-17T04:36:11.891Z,97373.38
2019-03-17T04:38:43.645Z,97381.53
2019-03-17T04:41:11.210Z,97388.45
2019-03-17T04:43:39.863Z,97381.41
2019-03-17T04:46:08.549Z,97378.76
2019-03-17T04:48:37.222Z,97377.55
2019-03-17T04:51:05.842Z,97385.13
2019-03-17T04:53:34.706Z,97385.67
2019-03-17T04:56:03.345Z,97392.16
2019-03-17T04:58:31.932Z,97387.72
2019-03-17T05:01:00.606Z,97385.29
2019-03-17T05:03:29.182Z,97392.05
2019-03-17T05:05:57.852Z,97395.69
2019-03-17T05:08:26.438Z,97397.64
2019-03-17T05:10:55.822Z,97396.05
2019-03-17T05:13:24.402Z,97395.61
2019-03-17T05:15:53.134Z,97401.18
2019-03-17T05:18:21.741Z,97398.56
2019-03-17T05:20:50.387Z,97409.21
2019-03-17T05:23:18.971Z,97410.37
2019-03-17T05:25:47.599Z,97408.62
2019-03-17T05:28:15.996Z,97406.03
2019-03-17T05:30:44.645Z,97409.61
2019-03-17T05:33:14.801Z,97417.36
2019-03-17T05:35:43.380Z,97415.29
2019-03-17T05:38:12.026Z,97409.59
2019-03-17T05:40:40.716Z,97407.17
2019-03-17T05:43:09.301Z,97403.94
2019-03-17T05:45:37.818Z,97412.27
2019-03-17T05:48:06.499Z,97413.73
2019-03-17T05:50:35.143Z,97412.61
2019-03-17T05:53:03.779Z,97421.09
2019-03-17T05:55:32.804Z,97416.70
2019-03-17T05:58:01.448Z,97410.91
2019-03-17T06:00:30.093Z,97413.42
2019-03-17T06:02:58.716Z,97415.44
2019-03-17T06:05:27.277Z,97423.73
2019-03-17T06:07:55.917Z,97424.30
2019-03-17T06:10:24.607Z,97422.91
2019-03-17T06:12:53.267Z,97424.55
2019-03-17T06:15:21.815Z,97420.98
2019-03-17T06:17:50.663Z,97417.88
2019-03-17T06:20:19.373Z,97415.92
2019-03-17T06:22:48.034Z,97416.08
2019-03-17T06:25:16.721Z,97415.18
2019-03-17T06:27:45.372Z,97412.20
2019-03-17T06:30:14.526Z,97410.45
2019-03-17T06:32:43.160Z,97414.76
2019-03-17T06:35:11.837Z,97411.67
2019-03-17T06:37:40.490Z,97411.78
2019-03-17T06:40:14.129Z,97414.73
2019-03-17T06:42:42.792Z,97415.70
2019-03-17T06:45:12.070Z,97415.97
2019-03-17T06:47:40.783Z,97411.72
2019-03-17T06:50:15.928Z,97412.67
2019-03-17T06:52:44.581Z,97407.66
2019-03-17T06:55:14.891Z,97410.54
2019-03-17T06:57:43.475Z,97398.06
2019-03-17T07:00:13.528Z,97404.63
2019-03-17T07:02:42.537Z,97402.83
2019-03-17T07:05:11.254Z,97406.75
2019-03-17T07:07:44.453Z,97405.09
2019-03-17T07:10:11.322Z,97400.05
2019-03-17T07:12:39.993Z,97403.16
2019-03-17T07:15:12.284Z,97405.02
2019-03-17T07:17:41.524Z,97402.66
2019-03-17T07:20:14.385Z,97398.65
2019-03-17T07:22:43.036Z,97403.08
2019-03-17T07:25:12.022Z,97401.58
2019-03-17T07:27:40.695Z,97404.95
2019-03-17T07:30:12.743Z,97405.09
2019-03-17T07:32:42.898Z,97405.09
2019-03-17T07:35:11.482Z,97403.79
2019-03-17T07:37:40.129Z,97402.16
2019-03-17T07:40:11.311Z,97402.55
2019-03-17T07:42:39.967Z,97404.84
2019-03-17T07:45:10.107Z,97401.59
2019-03-17T07:47:38.846Z,97394.70
2019-03-17T07:50:14.808Z,97391.91
2019-03-17T07:52:43.497Z,97390.16
2019-03-17T07:55:12.148Z,97382.57
2019-03-17T07:57:40.800Z,97387.49
2019-03-17T08:00:14.760Z,97381.33
2019-03-17T08:02:43.341Z,97384.16
2019-03-17T08:05:12.001Z,97372.80
2019-03-17T08:07:40.690Z,97370.89
2019-03-17T08:10:14.146Z,97378.03
2019-03-17T08:12:42.855Z,97367.54
2019-03-17T08:15:14.932Z,97374.89
2019-03-17T08:17:43.674Z,97370.27
2019-03-17T08:20:12.929Z,97366.09
2019-03-17T08:22:41.573Z,97366.25
2019-03-17T08:25:11.526Z,97360.94
2019-03-17T08:27:40.102Z,97354.16
2019-03-17T08:30:14.303Z,97356.17
2019-03-17T08:32:43.093Z,97345.06
2019-03-17T08:35:12.916Z,97343.05
2019-03-17T08:37:41.603Z,97337.57
2019-03-17T08:40:12.934Z,97336.55
2019-03-17T08:42:41.662Z,97335.17
2019-03-17T08:45:14.325Z,97325.00
2019-03-17T08:47:42.912Z,97331.01
2019-03-17T08:50:13.244Z,97323.61
2019-03-17T08:52:43.434Z,97321.00
2019-03-17T08:55:13.284Z,97324.06
2019-03-17T08:57:41.923Z,97318.78
2019-03-17T09:00:13.191Z,97306.83
2019-03-17T09:02:41.768Z,97304.19
2019-03-17T09:05:10.519Z,97301.42
2019-03-17T09:07:39.218Z,97292.59
2019-03-17T09:10:10.766Z,97283.96
2019-03-17T09:12:39.405Z,97275.53
2019-03-17T09:15:08.172Z,97272.76
2019-03-17T09:17:36.800Z,97272.76
2019-03-17T09:20:07.904Z,97262.28
2019-03-17T09:22:36.507Z,97259.70
2019-03-17T09:25:06.750Z,97257.31
2019-03-17T09:27:35.401Z,97267.17
2019-03-17T09:30:05.415Z,97256.30
2019-03-17T09:32:34.033Z,97251.20
2019-03-17T09:35:02.676Z,97252.94
2019-03-17T09:37:31.366Z,97249.48
2019-03-17T09:39:59.937Z,97243.98
2019-03-17T09:42:28.510Z,97244.83
2019-03-17T09:44:57.194Z,97238.31
2019-03-17T09:47:25.770Z,97237.86
2019-03-17T09:49:54.350Z,97233.01
2019-03-17T09:52:22.959Z,97230.68
2019-03-17T09:54:51.592Z,97223.19
2019-03-17T09:57:20.160Z,97222.91
2019-03-17T09:59:48.817Z,97222.42
2019-03-17T10:02:17.467Z,97208.03
2019-03-17T10:04:46.114Z,97204.84
2019-03-17T10:07:14.753Z,97200.40
2019-03-17T10:09:43.398Z,97197.67
2019-03-17T10:12:11.972Z,97195.03
2019-03-17T10:14:40.590Z,97189.48
2019-03-17T10:17:09.236Z,97187.19
2019-03-17T10:19:37.887Z,97179.98
2019-03-17T10:22:06.493Z,97182.61
2019-03-17T10:24:35.084Z,97179.13
2019-03-17T10:27:03.645Z,97171.54
2019-03-17T10:29:32.353Z,97173.22
2019-03-17T10:32:00.929Z,97170.69
2019-03-17T10:34:29.588Z,97163.70
2019-03-17T10:36:58.604Z,97163.13
2019-03-17T10:39:27.226Z,97165.14
2019-03-17T10:41:55.809Z,97154.41
2019-03-17T10:44:24.418Z,97152.59
2019-03-17T10:46:53.059Z,97148.42
2019-03-17T10:49:21.653Z,97147.66
2019-03-17T10:51:50.578Z,97139.60
2019-03-17T10:54:19.274Z,97135.02
2019-03-17T10:56:48.016Z,97126.73
2019-03-17T10:59:16.642Z,97124.31
2019-03-17T11:01:45.202Z,97119.76
2019-03-17T11:04:13.880Z,97125.17
2019-03-17T11:06:42.555Z,97123.23
2019-03-17T11:09:11.242Z,97115.50
2019-03-17T11:11:39.829Z,97111.61
2019-03-17T11:14:08.507Z,97103.59
2019-03-17T11:16:37.090Z,97104.60
2019-03-17T11:19:05.752Z,97093.19
2019-03-17T11:21:34.406Z,97089.74
2019-03-17T11:24:03.058Z,97082.46
2019-03-17T11:26:31.774Z,97070.84
2019-03-17T11:29:00.345Z,97072.44
2019-03-17T11:31:28.984Z,97066.79
2019-03-17T11:33:57.682Z,97063.64
2019-03-17T11:36:26.284Z,97055.91
2019-03-17T11:38:54.876Z,97059.30
2019-03-17T11:41:23.561Z,97055.34
2019-03-17T11:43:52.216Z,97047.63
2019-03-17T11:46:20.863Z,97040.52
2019-03-17T11:48:49.564Z,97034.78
2019-03-17T11:51:18.216Z,97036.24
2019-03-17T11:53:46.868Z,97031.05
2019-03-17T11:56:15.661Z,97030.53
2019-03-17T11:58:44.200Z,97023.97
2019-03-17T12:01:12.849Z,97023.35
2019-03-17T12:03:41.531Z,97022.57
2019-03-17T12:06:10.211Z,97012.27
2019-03-17T12:08:38.996Z,97010.60
2019-03-17T12:11:07.724Z,97009.06
2019-03-17T12:13:36.554Z,96996.70
2019-03-17T12:16:05.207Z,96989.02
2019-03-17T12:18:33.831Z,96990.99
2019-03-17T12:21:02.586Z,96987.59
2019-03-17T12:23:31.227Z,96982.03
2019-03-17T12:25:59.902Z,96976.95
2019-03-17T12:28:28.624Z,96978.70
2019-03-17T12:30:57.203Z,96972.73
2019-03-17T12:33:25.777Z,96977.27
2019-03-17T12:35:54.811Z,96968.37
2019-03-17T12:38:23.449Z,96968.88
2019-03-17T12:40:52.044Z,96970.27
2019-03-17T12:43:20.717Z,96960.63
2019-03-17T12:45:49.321Z,96966.20
2019-03-17T12:48:17.920Z,96962.45
2019-03-17T12:50:46.604Z,96954.30
2019-03-17T12:53:15.264Z,96955.66
2019-03-17T12:55:43.922Z,96953.40
2019-03-17T12:58:14.743Z,96948.26
2019-03-17T13:00:42.993Z,96942.69
2019-03-17T13:03:11.528Z,96946.38
2019-03-17T13:05:40.226Z,96939.66
2019-03-17T13:08:08.884Z,96935.72
2019-03-17T13:10:37.491Z,96933.14
2019-03-17T13:13:06.209Z,96928.23
2019-03-17T13:15:34.840Z,96925.40
2019-03-17T13:18:03.486Z,96919.46
2019-03-17T13:20:32.236Z,96917.43
2019-03-17T13:23:00.876Z,96914.36
2019-03-17T13:25:29.548Z,96918.26
2019-03-17T13:27:58.276Z,96908.67
2019-03-17T13:30:26.863Z,96908.33
2019-03-17T13:32:55.514Z,96907.69
2019-03-17T13:35:24.217Z,96902.59
2019-03-17T13:37:52.943Z,96900.77
2019-03-17T13:40:29.469Z,96896.84
2019-03-17T13:42:52.401Z,96900.70
2019-03-17T13:45:21.012Z,96888.16
2019-03-17T13:47:49.652Z,96882.50
2019-03-17T13:50:20.284Z,96887.81
2019-03-17T13:52:49.001Z,96888.16
2019-03-17T13:55:17.847Z,96888.65
2019-03-17T13:58:04.205Z,96886.08
2019-03-17T14:00:32.841Z,96886.36
2019-03-17T14:03:01.486Z,96881.96
2019-03-17T14:05:30.631Z,96879.72
2019-03-17T14:07:59.273Z,96877.80
2019-03-17T14:10:40.045Z,96869.34
2019-03-17T14:12:58.463Z,96869.84
2019-03-17T14:15:28.061Z,96872.86
2019-03-17T14:17:56.713Z,96867.16
2019-03-17T14:20:25.420Z,96866.52
2019-03-17T14:22:54.055Z,96868.86
2019-03-17T14:25:28.206Z,96870.19
2019-03-17T14:27:56.890Z,96864.78
2019-03-17T14:30:25.563Z,96866.70
2019-03-17T14:32:54.287Z,96867.59
2019-03-17T14:35:23.072Z,96873.20
2019-03-17T14:37:52.745Z,96870.88
2019-03-17T14:40:21.478Z,96877.16
2019-03-17T14:42:51.185Z,96866.45
2019-03-17T14:45:19.900Z,96870.42
2019-03-17T14:47:48.657Z,96876.75
2019-03-17T14:50:21.544Z,96875.95
2019-03-17T14:52:50.210Z,96871.03
2019-03-17T14:55:19.060Z,96872.27
2019-03-17T14:57:47.809Z,96876.05
2019-03-17T15:00:21.615Z,96869.73
2019-03-17T15:02:50.371Z,96872.00
2019-03-17T15:05:19.133Z,96874.54
2019-03-17T15:07:49.241Z,96874.70
2019-03-17T15:10:21.994Z,96869.23
2019-03-17T15:12:50.723Z,96878.85
2019-03-17T15:15:23.128Z,96871.97
2019-03-17T15:17:51.879Z,96873.91
2019-03-17T15:20:25.611Z,96879.48
2019-03-17T15:22:54.248Z,96877.30
2019-03-17T15:25:24.221Z,96875.92
2019-03-17T15:27:52.902Z,96874.98
2019-03-17T15:30:29.375Z,96880.03
2019-03-17T15:32:58.190Z,96879.52
2019-03-17T15:35:27.052Z,96880.64
2019-03-17T15:37:55.837Z,96879.62
2019-03-17T15:40:24.534Z,96880.89
2019-03-17T15:42:53.193Z,96878.82
2019-03-17T15:45:23.091Z,96880.73
2019-03-17T15:47:51.944Z,96887.30
2019-03-17T15:50:27.941Z,96886.59
2019-03-17T15:52:56.628Z,96885.22
2019-03-17T15:55:25.262Z,96888.38
2019-03-17T15:57:55.519Z,96885.45
2019-03-17T16:00:27.355Z,96884.02
2019-03-17T16:02:55.991Z,96883.37
2019-03-17T16:05:24.640Z,96884.36
2019-03-17T16:07:53.448Z,96883.05
2019-03-17T16:10:29.575Z,96890.69
2019-03-17T16:12:58.255Z,96888.23
2019-03-17T16:15:26.893Z,96886.08
2019-03-17T16:17:55.717Z,96889.86
2019-03-17T16:20:26.483Z,96887.73
2019-03-17T16:22:55.131Z,96888.22
2019-03-17T16:25:25.830Z,96888.02
2019-03-17T16:27:54.962Z,96894.06
2019-03-17T16:30:28.331Z,96898.20
2019-03-17T16:32:56.974Z,96898.45
2019-03-17T16:35:27.068Z,96900.21
2019-03-17T16:37:55.729Z,96900.00
2019-03-17T16:40:31.585Z,96899.22
2019-03-17T16:43:01.271Z,96901.41
2019-03-17T16:45:29.915Z,96906.27
2019-03-17T16:47:58.988Z,96912.02
2019-03-17T16:50:30.831Z,96909.90
2019-03-17T16:52:59.726Z,96901.86
2019-03-17T16:55:36.657Z,96904.95
2019-03-17T16:58:08.945Z,96908.46
2019-03-17T17:00:39.640Z,96911.23
2019-03-17T17:03:08.291Z,96913.13
2019-03-17T17:05:37.009Z,96901.30
2019-03-17T17:08:05.660Z,96913.38
2019-03-17T17:10:34.322Z,96911.94
2019-03-17T17:13:03.209Z,96922.21
2019-03-17T17:15:33.215Z,96927.70
2019-03-17T17:18:01.865Z,96927.92
2019-03-17T17:20:32.603Z,96928.00
2019-03-17T17:23:06.719Z,96926.01
2019-03-17T17:25:35.356Z,96930.14
2019-03-17T17:28:04.654Z,96931.88
2019-03-17T17:30:33.309Z,96937.95
2019-03-17T17:33:02.019Z,96936.56
2019-03-17T17:35:30.718Z,96936.10
2019-03-17T17:37:59.370Z,96932.76
2019-03-17T17:40:28.627Z,96942.80
2019-03-17T17:42:58.527Z,96941.38
2019-03-17T17:45:27.271Z,96944.22
2019-03-17T17:47:55.915Z,96945.22
2019-03-17T17:50:30.215Z,96953.97
2019-03-17T17:52:59.707Z,96948.40
2019-03-17T17:55:28.362Z,96949.82
2019-03-17T17:57:59.457Z,96955.95
2019-03-17T18:00:45.084Z,96959.17
2019-03-17T18:03:13.675Z,96966.03
2019-03-17T18:05:42.326Z,96957.13
2019-03-17T18:08:11.007Z,96966.22
2019-03-17T18:10:40.762Z,96972.33
2019-03-17T18:13:09.398Z,96969.14
2019-03-17T18:15:38.085Z,96967.55
2019-03-17T18:18:06.725Z,96976.00
2019-03-17T18:20:35.305Z,96962.30
2019-03-17T18:23:04.028Z,96980.41
2019-03-17T18:25:32.670Z,96976.00
2019-03-17T18:28:03.003Z,96977.23
2019-03-17T18:30:31.689Z,96980.77
2019-03-17T18:33:00.368Z,96979.16
2019-03-17T18:35:29.012Z,96977.77
2019-03-17T18:37:57.668Z,96973.00
2019-03-17T18:40:26.473Z,96984.59
2019-03-17T18:42:55.116Z,96979.90
2019-03-17T18:45:32.107Z,96980.58
2019-03-17T18:48:00.762Z,96991.75
2019-03-17T18:50:29.417Z,96989.82
2019-03-17T18:52:58.161Z,96977.80
2019-03-17T18:55:26.800Z,96994.59
2019-03-17T18:57:55.490Z,96982.75
2019-03-17T19:00:25.331Z,96984.25
2019-03-17T19:02:53.984Z,96988.08
2019-03-17T19:05:22.685Z,96982.09
2019-03-17T19:07:51.316Z,96981.48
2019-03-17T19:10:21.441Z,96982.91
2019-03-17T19:12:50.110Z,96988.63
2019-03-17T19:15:23.348Z,96991.91
2019-03-17T19:17:55.323Z,96989.02
2019-03-17T19:20:26.014Z,96986.41
2019-03-17T19:22:54.637Z,96987.98
2019-03-17T19:25:26.885Z,96994.16
2019-03-17T19:27:55.548Z,96993.88
2019-03-17T19:30:24.348Z,96999.97
2019-03-17T19:32:52.935Z,96989.75
2019-03-17T19:35:21.585Z,97001.65
2019-03-17T19:37:50.266Z,96991.54
2019-03-17T19:40:23.253Z,96996.66
2019-03-17T19:42:59.343Z,97013.17
2019-03-17T19:45:22.341Z,97004.64
2019-03-17T19:47:50.983Z,97012.26
2019-03-17T19:50:21.283Z,97008.87
2019-03-17T19:52:50.092Z,97016.01
2019-03-17T19:55:18.838Z,97015.94
2019-03-17T19:57:47.493Z,97019.84
2019-03-17T20:00:17.289Z,97021.23
2019-03-17T20:02:47.730Z,97014.12
2019-03-17T20:05:16.645Z,97011.49
2019-03-17T20:07:45.275Z,97013.20
2019-03-17T20:10:22.666Z,97012.33
2019-03-17T20:12:51.411Z,97015.78
2019-03-17T20:15:20.066Z,97012.34
2019-03-17T20:17:48.640Z,97011.34
2019-03-17T20:20:17.417Z,97009.55
2019-03-17T20:22:46.141Z,97012.27
2019-03-17T20:25:14.812Z,97013.08
2019-03-17T20:27:43.719Z,97013.44
2019-03-17T20:30:16.445Z,97010.35
2019-03-17T20:32:45.134Z,97018.38
2019-03-17T20:35:14.240Z,97017.21
2019-03-17T20:37:42.889Z,97022.25
2019-03-17T20:40:16.178Z,97024.56
2019-03-17T20:42:46.309Z,97021.95
2019-03-17T20:45:15.972Z,97022.14
2019-03-17T20:47:44.696Z,97026.31
2019-03-17T20:50:15.542Z,97025.48
2019-03-17T20:52:44.194Z,97018.38
2019-03-17T20:55:12.952Z,97023.42
2019-03-17T20:57:42.090Z,97013.83
2019-03-17T21:00:18.596Z,97017.75
2019-03-17T21:02:47.184Z,97012.43
2019-03-17T21:05:15.846Z,97010.31
2019-03-17T21:07:44.482Z,97010.90
2019-03-17T21:10:17.321Z,97005.27
2019-03-17T21:12:45.980Z,97001.03
2019-03-17T21:15:16.018Z,97005.23
2019-03-17T21:17:44.703Z,97002.89
2019-03-17T21:20:15.794Z,96999.16
2019-03-17T21:22:44.447Z,97005.66
2019-03-17T21:25:13.198Z,97008.95
2019-03-17T21:27:41.715Z,97014.91
2019-03-17T21:30:14.708Z,97022.55
2019-03-17T21:32:43.348Z,97025.76
2019-03-17T21:35:11.925Z,97021.66
2019-03-17T21:37:40.617Z,97019.03
2019-03-17T21:40:11.361Z,97014.09
2019-03-17T21:42:40.011Z,97020.76
2019-03-17T21:45:10.798Z,97017.00
2019-03-17T21:47:39.370Z,97017.52
2019-03-17T21:50:10.924Z,97010.86
2019-03-17T21:52:39.610Z,97014.00
2019-03-17T21:55:09.962Z,97017.42
2019-03-17T21:57:38.538Z,97016.32
2019-03-17T22:00:10.130Z,97015.48
2019-03-17T22:02:38.770Z,97022.37
2019-03-17T22:05:07.427Z,97018.97
2019-03-17T22:07:48.214Z,97006.95
2019-03-17T22:10:09.432Z,97024.14
2019-03-17T22:12:38.076Z,97020.40
2019-03-17T22:15:09.786Z,97019.36
2019-03-17T22:17:38.421Z,97018.97
2019-03-17T22:20:09.655Z,97017.25
2019-03-17T22:22:38.331Z,97012.20
2019-03-17T22:25:09.169Z,97008.47
2019-03-17T22:27:37.817Z,97012.70
2019-03-17T22:30:22.085Z,97014.16
2019-03-17T22:32:50.773Z,97012.86
2019-03-17T22:35:19.506Z,97019.44
2019-03-17T22:37:48.104Z,97005.41
2019-03-17T22:40:17.576Z,97009.05
2019-03-17T22:42:46.217Z,97005.27
2019-03-17T22:45:16.002Z,97005.67
2019-03-17T22:47:44.700Z,97010.95
2019-03-17T22:50:16.248Z,97009.45
2019-03-17T22:52:44.933Z,97009.97
2019-03-17T22:55:14.683Z,97013.35
2019-03-17T22:57:43.421Z,97025.25
2019-03-17T23:00:36.476Z,97033.38
2019-03-17T23:03:05.770Z,97031.60
2019-03-17T23:05:34.417Z,97028.16
2019-03-17T23:08:03.071Z,97031.97
2019-03-17T23:10:31.921Z,97039.64
2019-03-17T23:13:00.503Z,97042.75
2019-03-17T23:15:29.151Z,97044.37
2019-03-17T23:17:57.835Z,97045.13
2019-03-17T23:20:26.490Z,97043.48
2019-03-17T23:22:55.151Z,97049.98
2019-03-17T23:25:23.843Z,97051.59
2019-03-17T23:27:52.548Z,97047.34
2019-03-17T23:30:22.402Z,97042.45
2019-03-17T23:32:52.414Z,97044.75
2019-03-17T23:35:21.059Z,97049.81
2019-03-17T23:37:49.983Z,97042.73
2019-03-17T23:40:19.163Z,97051.02
2019-03-17T23:42:47.806Z,97052.28
2019-03-17T23:45:16.383Z,97059.98
2019-03-17T23:47:44.965Z,97060.20
2019-03-17T23:50:14.651Z,97063.39
2019-03-17T23:52:43.495Z,97057.48
2019-03-17T23:55:14.656Z,97049.80
2019-03-17T23:57:43.381Z,97050.48
